East End, Maryland
Current Conditions -  °F | °C
As of 11:45 AM on Thursday 18 Dec 2014 (Local Time) from KMTN Reporting Station
Overcast Overcast  
Wind Chill: 30°   Ceiling: 4100
Heat Index: 39°   Visibility: 10mi
Dew Point: 25°   Wind: 17mph
Humidity: 56%   Direction: 290°WNW
Pressure: 30.15"   Gusts: NA
Location:  39.3025°N, 76.5641°W
Report Text: KMTN 181645Z 29015KT 10SM OVC041 04/M04 A3015
Loading
Personal Weather Stations






























Interactive Weather Map New forecast layout! Learn more

10-Day Weather Forecast

Advertisements
Track Severe Weather on mobile